createdAt,value
2023-02-03T00:02:15.763Z,3.90
2023-02-03T00:04:43.325Z,3.65
2023-02-03T00:07:13.621Z,3.17
2023-02-03T00:09:41.900Z,3.65
2023-02-03T00:12:09.511Z,4.03
2023-02-03T00:14:38.146Z,3.42
2023-02-03T00:17:06.000Z,4.20
2023-02-03T00:19:33.502Z,4.28
2023-02-03T00:22:00.770Z,4.55
2023-02-03T00:24:28.723Z,5.20
2023-02-03T00:26:56.065Z,5.10
2023-02-03T00:29:26.105Z,5.70
2023-02-03T00:31:54.622Z,5.20
2023-02-03T00:34:22.419Z,5.20
2023-02-03T00:36:49.768Z,5.70
2023-02-03T00:39:17.366Z,5.22
2023-02-03T00:41:44.880Z,5.32
2023-02-03T00:44:12.411Z,5.75
2023-02-03T00:46:40.132Z,6.03
2023-02-03T00:49:08.119Z,6.38
2023-02-03T00:51:35.410Z,6.18
2023-02-03T00:54:03.031Z,6.57
2023-02-03T00:56:31.309Z,5.88
2023-02-03T00:58:58.836Z,6.68
2023-02-03T01:01:27.272Z,6.13
2023-02-03T01:03:56.246Z,5.72
2023-02-03T01:06:24.092Z,5.65
2023-02-03T01:08:52.171Z,7.15
2023-02-03T01:11:22.637Z,5.93
2023-02-03T01:13:52.019Z,6.40
2023-02-03T01:16:21.221Z,5.80
2023-02-03T01:18:49.455Z,5.47
2023-02-03T01:21:20.340Z,6.22
2023-02-03T01:23:48.562Z,6.30
2023-02-03T01:26:18.731Z,6.05
2023-02-03T01:28:56.795Z,6.00
2023-02-03T01:31:26.973Z,5.47
2023-02-03T01:33:55.652Z,4.85
2023-02-03T01:36:25.727Z,5.45
2023-02-03T01:38:53.734Z,4.88
2023-02-03T01:41:26.015Z,5.93
2023-02-03T01:43:55.581Z,4.57
2023-02-03T01:46:26.091Z,5.07
2023-02-03T01:48:56.904Z,3.95
2023-02-03T01:51:24.920Z,4.65
2023-02-03T01:53:54.777Z,4.35
2023-02-03T01:56:22.634Z,4.40
2023-02-03T01:58:51.167Z,4.20
2023-02-03T02:01:19.724Z,4.25
2023-02-03T02:03:54.629Z,3.55
2023-02-03T02:06:21.926Z,4.03
2023-02-03T02:08:52.517Z,3.33
2023-02-03T02:11:21.568Z,4.28
2023-02-03T02:13:52.525Z,3.40
2023-02-03T02:16:26.959Z,3.58
2023-02-03T02:19:06.783Z,3.40
2023-02-03T02:21:52.535Z,4.13
2023-02-03T02:24:42.664Z,4.13
2023-02-03T02:27:28.129Z,3.38
2023-02-03T02:30:09.492Z,4.10
2023-02-03T02:32:42.733Z,3.50
2023-02-03T02:36:06.031Z,3.47
2023-02-03T02:38:46.653Z,3.22
2023-02-03T02:41:30.150Z,3.38
2023-02-03T02:44:08.014Z,3.28
2023-02-03T02:46:48.644Z,3.22
2023-02-03T02:49:35.954Z,3.40
2023-02-03T02:52:07.511Z,3.25
2023-02-03T02:54:41.023Z,3.25
2023-02-03T02:57:13.595Z,3.30
2023-02-03T02:59:40.874Z,3.00
2023-02-03T03:02:11.013Z,3.05
2023-02-03T03:04:40.752Z,2.92
2023-02-03T03:07:29.953Z,2.88
2023-02-03T03:10:02.573Z,2.47
2023-02-03T03:12:48.291Z,2.70
2023-02-03T03:15:24.564Z,2.90
2023-02-03T03:18:00.541Z,2.60
2023-02-03T03:20:28.878Z,2.60
2023-02-03T03:23:10.804Z,3.38
2023-02-03T03:25:46.117Z,2.08
2023-02-03T03:28:20.913Z,3.25
2023-02-03T03:30:48.334Z,3.15
2023-02-03T03:33:16.244Z,2.58
2023-02-03T03:35:55.812Z,3.17
2023-02-03T03:38:37.754Z,3.22
2023-02-03T03:41:23.165Z,2.70
2023-02-03T03:43:53.864Z,2.90
2023-02-03T03:46:27.414Z,2.60
2023-02-03T03:48:59.198Z,2.47
2023-02-03T03:51:40.456Z,3.13
2023-02-03T03:54:13.128Z,2.35
2023-02-03T03:57:03.420Z,2.72
2023-02-03T03:59:35.833Z,2.60
2023-02-03T04:02:05.120Z,2.30
2023-02-03T04:04:36.680Z,2.80
2023-02-03T04:07:03.927Z,2.07
2023-02-03T04:09:31.751Z,2.42
2023-02-03T04:12:01.848Z,2.90
2023-02-03T04:14:30.628Z,3.05
2023-02-03T04:16:58.717Z,2.50
2023-02-03T04:19:26.609Z,2.72
2023-02-03T04:21:53.892Z,1.98
2023-02-03T04:24:21.500Z,2.30
2023-02-03T04:26:48.812Z,2.55
2023-02-03T04:29:16.303Z,2.05
2023-02-03T04:31:43.553Z,1.85
2023-02-03T04:34:11.164Z,2.25
2023-02-03T04:36:38.605Z,2.05
2023-02-03T04:39:06.130Z,4.70
2023-02-03T04:41:33.441Z,1.90
2023-02-03T04:44:01.291Z,2.10
2023-02-03T04:46:28.612Z,2.08
2023-02-03T04:48:56.114Z,1.88
2023-02-03T04:51:23.349Z,1.98
2023-02-03T04:53:51.281Z,1.90
2023-02-03T04:56:18.490Z,2.00
2023-02-03T04:58:46.006Z,2.10
2023-02-03T05:01:13.332Z,2.33
2023-02-03T05:03:40.928Z,2.85
2023-02-03T05:06:08.290Z,2.67
2023-02-03T05:08:35.819Z,2.70
2023-02-03T05:11:04.255Z,3.28
2023-02-03T05:13:32.752Z,3.38
2023-02-03T05:16:00.041Z,3.58
2023-02-03T05:18:27.591Z,4.65
2023-02-03T05:20:54.829Z,4.32
2023-02-03T05:23:22.457Z,4.18
2023-02-03T05:25:49.728Z,4.90
2023-02-03T05:28:17.304Z,4.80
2023-02-03T05:30:44.708Z,4.78
2023-02-03T05:33:12.199Z,3.97
2023-02-03T05:35:39.428Z,7.78
2023-02-03T05:38:07.531Z,4.63
2023-02-03T05:40:53.448Z,5.75
2023-02-03T05:43:20.942Z,3.90
2023-02-03T05:45:48.211Z,4.57
2023-02-03T05:48:15.776Z,5.10
2023-02-03T05:50:43.115Z,5.82
2023-02-03T05:53:10.806Z,5.78
2023-02-03T05:55:38.309Z,4.88
2023-02-03T05:58:05.819Z,5.65
2023-02-03T06:00:33.289Z,6.63
2023-02-03T06:03:02.711Z,7.20
2023-02-03T06:05:32.153Z,7.97
2023-02-03T06:08:00.423Z,8.68
2023-02-03T06:10:28.163Z,7.50
2023-02-03T06:12:55.933Z,9.25
2023-02-03T06:15:23.264Z,10.43
2023-02-03T06:17:50.955Z,10.32
2023-02-03T06:20:20.566Z,11.93
2023-02-03T06:22:48.152Z,10.23
2023-02-03T06:25:15.541Z,9.05
2023-02-03T06:27:43.047Z,8.30
2023-02-03T06:30:11.651Z,8.25
2023-02-03T06:32:39.156Z,7.95
2023-02-03T06:35:06.782Z,8.77
2023-02-03T06:37:35.763Z,10.30
2023-02-03T06:40:04.496Z,11.95
2023-02-03T06:42:32.098Z,11.70
2023-02-03T06:44:59.671Z,12.02
2023-02-03T06:47:27.359Z,12.85
2023-02-03T06:49:54.652Z,12.60
2023-02-03T06:52:22.226Z,14.30
2023-02-03T06:54:49.500Z,15.23
2023-02-03T06:57:17.185Z,13.98
2023-02-03T06:59:44.409Z,14.82
2023-02-03T07:02:12.233Z,16.02
2023-02-03T07:04:39.601Z,15.95
2023-02-03T07:07:07.189Z,14.88
2023-02-03T07:09:34.415Z,14.82
2023-02-03T07:12:01.968Z,14.18
2023-02-03T07:14:31.152Z,14.45
2023-02-03T07:16:58.772Z,13.10
2023-02-03T07:19:26.112Z,12.85
2023-02-03T07:21:53.751Z,14.55
2023-02-03T07:24:21.018Z,13.55
2023-02-03T07:26:48.599Z,12.68
2023-02-03T07:29:15.885Z,13.18
2023-02-03T07:31:43.560Z,12.10
2023-02-03T07:34:10.908Z,12.45
2023-02-03T07:36:38.487Z,13.55
2023-02-03T07:39:05.775Z,11.55
2023-02-03T07:41:33.459Z,11.05
2023-02-03T07:44:00.772Z,11.75
2023-02-03T07:46:28.414Z,12.32
2023-02-03T07:48:55.722Z,11.43
2023-02-03T07:51:23.271Z,11.05
2023-02-03T07:53:50.517Z,11.55
2023-02-03T07:56:18.050Z,13.48
2023-02-03T07:58:45.431Z,11.10
2023-02-03T08:01:15.616Z,11.77
2023-02-03T08:03:43.733Z,11.63
2023-02-03T08:06:11.236Z,10.50
2023-02-03T08:08:38.459Z,11.43
2023-02-03T08:11:05.986Z,12.63
2023-02-03T08:13:33.491Z,11.05
2023-02-03T08:16:01.231Z,12.50
2023-02-03T08:18:30.221Z,10.75
2023-02-03T08:20:59.269Z,9.48
2023-02-03T08:23:26.543Z,10.13
2023-02-03T08:25:54.192Z,8.73
2023-02-03T08:28:21.703Z,10.23
2023-02-03T08:30:49.474Z,8.85
2023-02-03T08:33:16.895Z,8.93
2023-02-03T08:35:49.696Z,10.25
2023-02-03T08:38:17.634Z,8.93
2023-02-03T08:40:45.186Z,9.02
2023-02-03T08:43:12.484Z,9.55
2023-02-03T08:45:41.083Z,8.38
2023-02-03T08:48:08.721Z,9.73
2023-02-03T08:50:36.501Z,10.35
2023-02-03T08:53:03.730Z,8.93
2023-02-03T08:55:31.257Z,9.68
2023-02-03T08:57:58.539Z,7.95
2023-02-03T09:00:26.831Z,8.40
2023-02-03T09:02:54.294Z,8.65
2023-02-03T09:05:22.454Z,8.90
2023-02-03T09:07:49.720Z,8.68
2023-02-03T09:10:17.299Z,9.93
2023-02-03T09:12:44.500Z,10.30
2023-02-03T09:15:12.036Z,9.55
2023-02-03T09:17:39.315Z,10.73
2023-02-03T09:20:07.563Z,10.60
2023-02-03T09:22:34.864Z,10.35
2023-02-03T09:25:02.555Z,10.80
2023-02-03T09:27:29.782Z,11.02
2023-02-03T09:29:58.623Z,11.60
2023-02-03T09:32:25.864Z,12.98
2023-02-03T09:34:53.363Z,10.57
2023-02-03T09:37:20.606Z,11.07
2023-02-03T09:39:48.970Z,11.27
2023-02-03T09:42:55.702Z,12.40
2023-02-03T09:45:27.271Z,12.88
2023-02-03T09:47:59.918Z,11.50
2023-02-03T09:50:32.010Z,11.70
2023-02-03T09:53:03.687Z,12.00
2023-02-03T09:58:12.796Z,11.82
2023-02-03T10:00:44.754Z,12.98
2023-02-03T10:03:22.962Z,11.65
2023-02-03T10:06:02.724Z,12.98
2023-02-03T10:09:00.904Z,13.95
2023-02-03T10:11:37.650Z,15.35
2023-02-03T10:14:23.170Z,15.15
2023-02-03T10:16:59.758Z,16.38
2023-02-03T10:19:54.052Z,17.10
2023-02-03T10:22:28.193Z,14.77
2023-02-03T10:25:12.260Z,19.15
2023-02-03T10:27:42.648Z,15.40
2023-02-03T10:30:23.645Z,15.98
2023-02-03T10:33:09.168Z,16.17
2023-02-03T10:35:55.290Z,18.73
2023-02-03T10:38:46.079Z,20.30
2023-02-03T10:41:15.182Z,20.73
2023-02-03T10:43:48.629Z,25.67
2023-02-03T10:46:17.589Z,27.60
2023-02-03T10:48:45.235Z,25.13
2023-02-03T10:51:21.899Z,28.15
2023-02-03T10:53:53.396Z,35.50
2023-02-03T10:56:41.095Z,27.67
2023-02-03T10:59:29.638Z,30.45
2023-02-03T11:01:57.326Z,34.20
2023-02-03T11:04:31.087Z,32.05
2023-02-03T11:07:03.880Z,30.42
2023-02-03T11:09:36.001Z,30.90
2023-02-03T11:12:18.252Z,30.15
2023-02-03T11:14:51.110Z,34.08
2023-02-03T11:17:23.589Z,29.58
2023-02-03T11:19:54.036Z,31.75
2023-02-03T11:22:36.282Z,32.28
2023-02-03T11:25:16.659Z,33.95
2023-02-03T11:27:44.326Z,38.67
2023-02-03T11:30:12.011Z,29.13
2023-02-03T11:32:41.802Z,30.00
2023-02-03T11:35:22.914Z,33.45
2023-02-03T11:37:56.384Z,33.42
2023-02-03T11:40:27.449Z,35.00
2023-02-03T11:42:57.844Z,40.47
2023-02-03T11:45:52.243Z,42.88
2023-02-03T11:48:33.345Z,34.95
2023-02-03T11:51:03.977Z,34.67
2023-02-03T11:54:01.706Z,36.92
2023-02-03T11:56:35.042Z,38.13
2023-02-03T11:59:14.461Z,35.83
2023-02-03T12:02:05.777Z,43.08
2023-02-03T12:04:54.590Z,34.22
2023-02-03T12:07:31.854Z,38.97
2023-02-03T12:10:08.248Z,37.30
2023-02-03T12:12:47.939Z,32.38
2023-02-03T12:15:47.124Z,31.13
2023-02-03T12:18:26.990Z,35.88
2023-02-03T12:21:31.845Z,34.13
2023-02-03T12:24:14.487Z,34.00
2023-02-03T12:26:50.856Z,39.33
2023-02-03T12:29:24.941Z,34.25
2023-02-03T12:32:14.588Z,37.58
2023-02-03T12:34:53.963Z,40.45
2023-02-03T12:37:30.745Z,49.75
2023-02-03T12:40:15.394Z,44.15
2023-02-03T12:42:57.815Z,40.85
2023-02-03T12:45:36.946Z,37.47
2023-02-03T12:48:59.815Z,39.53
2023-02-03T12:51:45.279Z,53.33
2023-02-03T12:54:51.301Z,41.88
2023-02-03T12:57:27.239Z,43.35
2023-02-03T13:00:07.880Z,41.47
2023-02-03T13:02:49.782Z,37.38
2023-02-03T13:05:55.985Z,39.50
2023-02-03T13:08:36.271Z,40.38
2023-02-03T13:11:41.059Z,48.97
2023-02-03T13:14:33.237Z,37.05
2023-02-03T13:17:25.133Z,38.92
2023-02-03T13:23:23.280Z,38.70
2023-02-03T13:26:12.526Z,40.30
2023-02-03T13:29:21.622Z,37.53
2023-02-03T13:32:21.106Z,34.60
2023-02-03T13:35:52.841Z,38.97
2023-02-03T13:39:37.012Z,39.78
2023-02-03T13:43:36.928Z,43.83
2023-02-03T13:46:09.513Z,41.60
2023-02-03T13:48:37.251Z,33.30
2023-02-03T13:51:18.855Z,38.10
2023-02-03T13:53:48.979Z,33.30
2023-02-03T13:56:34.981Z,35.10
2023-02-03T13:59:14.400Z,36.13
2023-02-03T14:01:42.925Z,53.08
2023-02-03T14:04:31.907Z,41.00
2023-02-03T14:07:02.960Z,43.33
2023-02-03T14:09:35.785Z,42.92
2023-02-03T14:12:15.648Z,42.35
2023-02-03T14:15:04.517Z,46.28
2023-02-03T14:17:35.183Z,48.78
2023-02-03T14:20:05.815Z,52.58
2023-02-03T14:22:33.496Z,50.78
2023-02-03T14:25:07.047Z,55.50
2023-02-03T14:27:35.014Z,52.85
2023-02-03T14:30:13.673Z,56.83
2023-02-03T14:33:02.953Z,55.35
2023-02-03T14:35:35.067Z,53.05
2023-02-03T14:38:06.467Z,46.78
2023-02-03T14:40:56.983Z,58.03
2023-02-03T14:43:51.487Z,47.28
2023-02-03T14:46:43.438Z,48.33
2023-02-03T14:52:02.539Z,47.38
2023-02-03T14:54:46.278Z,50.42
2023-02-03T14:57:52.408Z,47.40
2023-02-03T15:00:19.874Z,47.45
2023-02-03T15:03:12.009Z,47.40
2023-02-03T15:05:42.976Z,44.35
2023-02-03T15:08:44.437Z,50.95
2023-02-03T15:11:33.437Z,41.03
2023-02-03T15:14:33.275Z,39.63
2023-02-03T15:17:12.682Z,42.95
2023-02-03T15:19:42.632Z,48.20
2023-02-03T15:22:25.091Z,52.70
2023-02-03T15:25:04.442Z,45.13
2023-02-03T15:27:33.025Z,44.42
2023-02-03T15:30:18.364Z,45.25
2023-02-03T15:33:05.570Z,45.95
2023-02-03T15:35:36.737Z,46.72
2023-02-03T15:38:14.221Z,46.65
2023-02-03T15:40:47.340Z,47.15
2023-02-03T15:43:20.825Z,50.03
2023-02-03T15:46:00.412Z,44.97
2023-02-03T15:48:38.374Z,50.03
2023-02-03T15:51:08.171Z,47.47
2023-02-03T15:54:06.550Z,49.70
2023-02-03T15:56:44.721Z,40.90
2023-02-03T15:59:35.314Z,38.78
2023-02-03T16:02:19.554Z,41.92
2023-02-03T16:04:48.012Z,39.08
2023-02-03T16:07:25.530Z,39.90
2023-02-03T16:09:54.962Z,38.33
2023-02-03T16:12:26.567Z,37.22
2023-02-03T16:17:25.313Z,37.80
2023-02-03T16:20:13.305Z,29.60
2023-02-03T16:23:00.051Z,31.95
2023-02-03T16:25:30.699Z,32.85
2023-02-03T16:28:29.810Z,36.42
2023-02-03T16:31:17.253Z,30.42
2023-02-03T16:34:08.384Z,31.52
2023-02-03T16:36:59.467Z,32.67
2023-02-03T16:39:45.728Z,30.27
2023-02-03T16:42:37.347Z,28.25
2023-02-03T16:45:32.461Z,28.47
2023-02-03T16:48:19.039Z,31.58
2023-02-03T16:51:13.012Z,23.63
2023-02-03T16:53:40.715Z,23.48
2023-02-03T16:56:07.962Z,20.60
2023-02-03T16:58:35.714Z,20.88
2023-02-03T17:01:05.785Z,19.58
2023-02-03T17:03:37.588Z,21.02
2023-02-03T17:06:07.505Z,19.45
2023-02-03T17:08:35.608Z,20.52
2023-02-03T17:11:18.580Z,16.58
2023-02-03T17:13:46.966Z,17.60
2023-02-03T17:16:17.431Z,15.23
2023-02-03T17:18:48.295Z,15.43
2023-02-03T17:21:22.216Z,16.60
2023-02-03T17:23:50.117Z,13.20
2023-02-03T17:26:17.367Z,12.02
2023-02-03T17:28:45.362Z,12.90
2023-02-03T17:31:18.091Z,12.55
2023-02-03T17:33:46.564Z,11.00
2023-02-03T17:36:16.558Z,9.70
2023-02-03T17:55:19.426Z,9.32
2023-02-03T17:57:46.713Z,9.98
2023-02-03T18:00:14.608Z,10.70
2023-02-03T18:02:43.222Z,11.05
2023-02-03T18:05:11.419Z,13.10
2023-02-03T18:07:38.677Z,14.80
2023-02-03T18:10:06.298Z,14.80
2023-02-03T18:12:33.611Z,15.45
2023-02-03T18:15:01.249Z,15.77
2023-02-03T18:17:28.631Z,16.45
2023-02-03T18:19:56.510Z,16.45
2023-02-03T18:22:24.161Z,16.83
2023-02-03T18:24:52.356Z,16.25
2023-02-03T18:27:20.107Z,16.52
2023-02-03T18:29:48.432Z,16.75
2023-02-03T18:32:16.865Z,15.93
2023-02-03T18:34:44.442Z,14.90
2023-02-03T18:37:12.355Z,14.50
2023-02-03T18:39:39.939Z,13.40
2023-02-03T18:42:07.424Z,14.35
2023-02-03T18:44:34.959Z,14.35
2023-02-03T18:47:07.055Z,12.65
2023-02-03T18:49:36.288Z,14.30
2023-02-03T18:52:04.370Z,12.20
2023-02-03T18:54:32.143Z,11.73
2023-02-03T18:56:59.453Z,10.50
2023-02-03T18:59:27.099Z,9.50
2023-02-03T19:01:54.472Z,9.32
2023-02-03T19:04:22.613Z,9.98
2023-02-03T19:06:50.129Z,9.90
2023-02-03T19:09:19.339Z,8.90
2023-02-03T19:11:46.666Z,8.70
2023-02-03T19:14:16.426Z,8.30
2023-02-03T19:16:44.108Z,8.07
2023-02-03T19:19:14.961Z,7.78
2023-02-03T19:21:42.253Z,7.53
2023-02-03T19:24:13.120Z,8.40
2023-02-03T19:26:40.477Z,9.73
2023-02-03T19:29:08.033Z,7.85
2023-02-03T19:31:38.065Z,7.68
2023-02-03T19:34:05.944Z,7.80
2023-02-03T19:36:33.224Z,8.63
2023-02-03T19:39:00.767Z,7.57
2023-02-03T19:41:28.113Z,8.30
2023-02-03T19:43:55.772Z,8.35
2023-02-03T19:46:23.576Z,6.90
2023-02-03T19:48:51.172Z,7.72
2023-02-03T19:51:18.507Z,6.80
2023-02-03T19:53:46.015Z,6.82
2023-02-03T19:56:13.684Z,7.90
2023-02-03T19:58:41.408Z,7.43
2023-02-03T20:01:10.261Z,8.38
2023-02-03T20:03:37.809Z,9.30
2023-02-03T20:06:05.368Z,9.23
2023-02-03T20:08:32.956Z,7.88
2023-02-03T20:11:00.328Z,7.97
2023-02-03T20:13:27.898Z,8.90
2023-02-03T20:15:55.360Z,8.32
2023-02-03T20:18:23.182Z,8.50
2023-02-03T20:20:55.353Z,10.02
2023-02-03T20:23:23.969Z,10.32
2023-02-03T20:25:55.400Z,8.90
2023-02-03T20:28:25.503Z,8.27
2023-02-03T20:30:58.996Z,9.55
2023-02-03T20:33:28.108Z,12.15
2023-02-03T20:35:56.640Z,9.68
2023-02-03T20:38:25.066Z,10.85
2023-02-03T20:40:52.366Z,10.15
2023-02-03T20:43:25.160Z,9.15
2023-02-03T20:45:53.223Z,11.80
2023-02-03T20:48:22.578Z,9.35
2023-02-03T20:50:50.400Z,9.25
2023-02-03T20:53:19.940Z,9.88
2023-02-03T20:55:48.578Z,9.68
2023-02-03T20:58:26.280Z,9.27
2023-02-03T21:00:57.216Z,10.95
2023-02-03T21:03:44.672Z,9.55
2023-02-03T21:06:14.804Z,11.80
2023-02-03T21:08:44.354Z,10.52
2023-02-03T21:11:26.613Z,14.88
2023-02-03T21:13:54.286Z,13.98
2023-02-03T21:16:25.366Z,15.77
2023-02-03T21:19:02.910Z,16.90
2023-02-03T21:21:40.298Z,16.95
2023-02-03T21:24:28.945Z,16.55
2023-02-03T21:26:57.704Z,15.35
2023-02-03T21:29:36.877Z,15.68
2023-02-03T21:32:04.366Z,14.93
2023-02-03T21:34:33.171Z,13.63
2023-02-03T21:37:31.322Z,12.43
2023-02-03T21:39:58.850Z,9.57
2023-02-03T21:42:42.666Z,11.13
2023-02-03T21:45:16.911Z,11.07
2023-02-03T21:47:46.072Z,10.65
2023-02-03T21:50:36.685Z,7.72
2023-02-03T21:53:24.024Z,6.18
2023-02-03T21:55:51.771Z,6.00
2023-02-03T21:58:26.143Z,6.35
2023-02-03T22:00:55.920Z,6.25
2023-02-03T22:03:40.806Z,4.60
2023-02-03T22:06:08.386Z,4.85
2023-02-03T22:08:41.171Z,5.13
2023-02-03T22:11:09.456Z,4.53
2023-02-03T22:13:36.828Z,4.40
2023-02-03T22:16:05.075Z,3.92
2023-02-03T22:18:32.523Z,4.07
2023-02-03T22:21:00.594Z,4.32
2023-02-03T22:23:27.848Z,3.03
2023-02-03T22:25:55.538Z,3.40
2023-02-03T22:28:22.763Z,8.40
2023-02-03T22:30:50.451Z,4.35
2023-02-03T22:33:17.998Z,8.75
2023-02-03T22:35:45.713Z,2.38
2023-02-03T22:38:13.040Z,2.17
2023-02-03T22:40:40.577Z,2.47
2023-02-03T22:43:07.853Z,2.20
2023-02-03T22:45:35.442Z,1.92
2023-02-03T22:48:02.808Z,1.95
2023-02-03T22:50:35.811Z,2.10
2023-02-03T22:53:04.507Z,1.48
2023-02-03T22:55:32.163Z,1.48
2023-02-03T22:57:59.496Z,2.17
2023-02-03T23:00:27.118Z,1.23
2023-02-03T23:02:54.758Z,1.10
2023-02-03T23:05:23.059Z,1.10
2023-02-03T23:07:51.018Z,0.80
2023-02-03T23:10:22.278Z,0.85
2023-02-03T23:12:50.011Z,0.60
2023-02-03T23:15:18.420Z,0.98
2023-02-03T23:17:45.927Z,0.95
2023-02-03T23:20:15.459Z,0.90
2023-02-03T23:22:43.751Z,0.82
2023-02-03T23:25:12.020Z,0.50
2023-02-03T23:27:39.849Z,0.45
2023-02-03T23:30:08.611Z,0.68
2023-02-03T23:32:36.016Z,0.60
2023-02-03T23:35:22.748Z,0.38
2023-02-03T23:37:50.084Z,0.50
2023-02-03T23:40:17.897Z,0.65
2023-02-03T23:42:45.163Z,0.40
2023-02-03T23:45:12.838Z,0.50
2023-02-03T23:47:42.234Z,0.40
2023-02-03T23:50:12.196Z,0.65
2023-02-03T23:52:39.568Z,0.30
2023-02-03T23:55:10.308Z,0.55
2023-02-03T23:57:38.034Z,0.40
